Time;durP1;ratioP1;P1;durP2;ratioP2;P2;SDS_P1;SDS_P2;PMS_P1;PMS_P2;Temp;Humidity;BMP_temperature;BMP_pressure;BME280_temperature;BME280_humidity;BME280_pressure;Samples;Min_cycle;Max_cycle;Signal;HPM_P1;HPM_P2
2022/04/26 03:37:32;;;;;;;21.85;12.43;;;;;;;;;;5003547;28;20132;-68
2022/04/26 03:39:58;;;;;;;27.45;12.77;;;;;;;;;;5002456;28;20491;-68
2022/04/26 03:42:23;;;;;;;20.10;12.48;;;;;;;;;;5003169;28;20040;-68
2022/04/26 03:44:49;;;;;;;24.13;12.48;;;;;;;;;;5016706;28;20056;-68
2022/04/26 03:47:16;;;;;;;25.77;13.07;;;;;;;;;;5002858;28;20535;-68
2022/04/26 03:49:41;;;;;;;21.08;12.57;;;;;;;;;;5002583;28;20098;-69
2022/04/26 03:52:07;;;;;;;27.08;13.20;;;;;;;;;;5002480;28;20029;-70
2022/04/26 03:54:34;;;;;;;25.17;13.32;;;;;;;;;;5003162;28;20029;-68
2022/04/26 03:57:02;;;;;;;31.02;13.18;;;;;;;;;;5002369;28;20037;-68
2022/04/26 03:59:28;;;;;;;23.15;12.15;;;;;;;;;;5002657;28;20052;-66
2022/04/26 04:01:56;;;;;;;20.75;12.18;;;;;;;;;;5000706;28;20026;-69
2022/04/26 04:04:23;;;;;;;24.25;13.40;;;;;;;;;;5000691;28;20486;-69
2022/04/26 04:06:49;;;;;;;26.70;14.23;;;;;;;;;;5004727;28;20029;-68
2022/04/26 04:09:15;;;;;;;29.08;13.50;;;;;;;;;;5021465;28;20041;-68
2022/04/26 04:11:40;;;;;;;32.97;14.73;;;;;;;;;;5007052;28;20064;-68
2022/04/26 04:14:08;;;;;;;28.08;14.30;;;;;;;;;;5005556;28;20040;-68
2022/04/26 04:16:35;;;;;;;27.98;14.55;;;;;;;;;;5006551;28;20693;-66
2022/04/26 04:19:19;;;;;;;27.73;14.90;;;;;;;;;;5006526;28;20043;-66
2022/04/26 04:21:48;;;;;;;24.13;13.77;;;;;;;;;;5006451;28;20047;-66
2022/04/26 04:24:17;;;;;;;24.10;14.13;;;;;;;;;;5005715;28;20037;-66
2022/04/26 04:26:45;;;;;;;24.20;14.50;;;;;;;;;;5015811;28;20084;-66
2022/04/26 04:29:11;;;;;;;24.65;14.02;;;;;;;;;;5005924;28;20025;-65
2022/04/26 04:31:37;;;;;;;28.33;13.73;;;;;;;;;;5020683;28;20057;-66
2022/04/26 04:34:05;;;;;;;28.10;14.25;;;;;;;;;;5003655;28;20376;-66
2022/04/26 04:36:30;;;;;;;27.98;15.35;;;;;;;;;;5005040;28;20043;-66
2022/04/26 04:38:56;;;;;;;25.25;13.75;;;;;;;;;;5004031;28;20036;-68
2022/04/26 04:41:22;;;;;;;23.67;14.43;;;;;;;;;;5005510;28;20304;-66
2022/04/26 04:43:47;;;;;;;30.80;15.40;;;;;;;;;;5003720;28;20068;-67
2022/04/26 04:46:20;;;;;;;34.92;15.18;;;;;;;;;;5014537;28;20040;-68
2022/04/26 04:48:45;;;;;;;30.13;15.45;;;;;;;;;;5005204;28;22426;-68
2022/04/26 04:51:11;;;;;;;31.23;15.95;;;;;;;;;;5005256;28;20042;-66
2022/04/26 04:53:36;;;;;;;28.45;15.23;;;;;;;;;;5020352;28;20047;-65
2022/04/26 04:56:01;;;;;;;28.58;15.98;;;;;;;;;;5005710;28;20765;-66
2022/04/26 04:58:29;;;;;;;27.30;15.48;;;;;;;;;;5005480;28;20420;-66
2022/04/26 05:00:56;;;;;;;30.88;16.38;;;;;;;;;;5003863;28;20772;-66
2022/04/26 05:03:22;;;;;;;29.83;16.52;;;;;;;;;;5005077;28;20910;-66
2022/04/26 05:05:50;;;;;;;31.45;16.00;;;;;;;;;;5005176;28;20466;-68
2022/04/26 05:08:15;;;;;;;30.90;16.98;;;;;;;;;;5005286;28;20132;-69
2022/04/26 05:10:40;;;;;;;39.05;18.20;;;;;;;;;;5005397;28;20683;-69
2022/04/26 05:13:06;;;;;;;40.30;17.58;;;;;;;;;;5003329;28;20831;-68
2022/04/26 05:15:32;;;;;;;29.70;17.25;;;;;;;;;;5003808;28;20358;-68
2022/04/26 05:18:00;;;;;;;31.45;17.08;;;;;;;;;;5005521;28;20881;-69
2022/04/26 05:20:25;;;;;;;29.13;16.98;;;;;;;;;;5006545;28;20545;-69
2022/04/26 05:25:39;;;;;;;28.23;17.10;;;;;;;;;;5005653;28;20040;-69
2022/04/26 05:28:04;;;;;;;31.80;17.27;;;;;;;;;;5020533;28;20030;-68
2022/04/26 05:30:30;;;;;;;29.95;17.05;;;;;;;;;;5004907;28;20572;-68
2022/04/26 05:32:55;;;;;;;31.27;15.90;;;;;;;;;;5003080;28;20504;-68
2022/04/26 05:35:22;;;;;;;31.67;16.63;;;;;;;;;;5004574;28;20173;-69
2022/04/26 05:37:48;;;;;;;25.95;15.68;;;;;;;;;;5002904;28;20460;-69
2022/04/26 05:40:18;;;;;;;30.58;16.00;;;;;;;;;;5004356;28;20384;-69
2022/04/26 05:42:45;;;;;;;32.72;15.60;;;;;;;;;;5003183;28;20397;-69
2022/04/26 05:45:11;;;;;;;23.02;15.20;;;;;;;;;;5018928;28;20632;-67
2022/04/26 05:47:42;;;;;;;34.33;15.27;;;;;;;;;;5004970;28;20028;-68
2022/04/26 05:50:08;;;;;;;25.75;13.93;;;;;;;;;;5004208;28;20028;-66
2022/04/26 05:52:34;;;;;;;27.88;14.15;;;;;;;;;;5004504;28;20839;-66
2022/04/26 05:55:00;;;;;;;24.38;13.15;;;;;;;;;;5004754;28;20025;-67
2022/04/26 05:57:27;;;;;;;35.55;13.20;;;;;;;;;;5004389;28;20033;-69
2022/04/26 05:59:55;;;;;;;18.60;11.57;;;;;;;;;;5004009;28;20425;-64
2022/04/26 06:02:20;;;;;;;23.75;12.00;;;;;;;;;;5004810;28;20327;-64
2022/04/26 06:04:45;;;;;;;23.80;10.77;;;;;;;;;;5004199;28;20037;-64
2022/04/26 06:07:10;;;;;;;24.10;9.57;;;;;;;;;;5002418;28;20503;-65
2022/04/26 06:09:37;;;;;;;26.33;8.85;;;;;;;;;;5004461;28;20032;-64
2022/04/26 06:12:03;;;;;;;18.95;10.05;;;;;;;;;;5004763;28;20040;-63
2022/04/26 06:14:28;;;;;;;19.75;9.43;;;;;;;;;;5002290;28;20029;-63
2022/04/26 06:16:56;;;;;;;20.83;8.90;;;;;;;;;;5004340;28;20020;-64
2022/04/26 06:19:21;;;;;;;22.85;9.63;;;;;;;;;;5004306;28;20127;-64
2022/04/26 06:21:49;;;;;;;18.85;8.55;;;;;;;;;;5002468;28;20029;-64
2022/04/26 06:24:14;;;;;;;20.85;8.00;;;;;;;;;;5003956;28;20037;-64
2022/04/26 06:26:40;;;;;;;16.40;7.68;;;;;;;;;;5004280;28;20186;-63
2022/04/26 06:29:05;;;;;;;23.17;7.95;;;;;;;;;;5001596;28;20322;-64
2022/04/26 06:31:31;;;;;;;16.30;7.28;;;;;;;;;;5003543;28;20064;-64
2022/04/26 06:33:56;;;;;;;18.55;6.63;;;;;;;;;;4995025;28;20085;-64
2022/04/26 06:36:21;;;;;;;15.48;6.22;;;;;;;;;;5003698;28;20669;-63
2022/04/26 06:38:47;;;;;;;13.18;5.22;;;;;;;;;;5003883;28;20774;-62
2022/04/26 06:41:13;;;;;;;15.15;4.88;;;;;;;;;;5003545;28;20125;-63
2022/04/26 06:43:38;;;;;;;11.13;4.82;;;;;;;;;;5003706;28;20210;-62
2022/04/26 06:46:03;;;;;;;11.07;4.18;;;;;;;;;;5017856;28;20033;-62
2022/04/26 06:48:29;;;;;;;14.45;4.82;;;;;;;;;;5018285;28;20544;-62
2022/04/26 06:50:57;;;;;;;9.73;4.13;;;;;;;;;;5003202;28;20025;-63
2022/04/26 06:53:25;;;;;;;9.15;4.03;;;;;;;;;;5003729;28;20028;-62
2022/04/26 06:55:54;;;;;;;9.85;4.10;;;;;;;;;;5002657;28;20036;-61
2022/04/26 06:58:20;;;;;;;9.65;3.88;;;;;;;;;;5003642;28;20094;-62
2022/04/26 07:00:46;;;;;;;10.38;3.90;;;;;;;;;;5003769;28;20728;-63
2022/04/26 07:03:11;;;;;;;12.35;4.18;;;;;;;;;;5003652;28;20109;-62
2022/04/26 07:05:37;;;;;;;9.57;4.03;;;;;;;;;;5001448;28;20136;-62
2022/04/26 07:08:06;;;;;;;10.02;3.72;;;;;;;;;;5003189;28;20021;-62
2022/04/26 07:10:31;;;;;;;12.75;3.60;;;;;;;;;;5003404;28;20126;-62
2022/04/26 07:12:56;;;;;;;8.07;3.60;;;;;;;;;;5003251;28;20084;-62
2022/04/26 07:15:24;;;;;;;8.70;3.80;;;;;;;;;;5003351;28;22015;-62
2022/04/26 07:17:49;;;;;;;6.63;3.42;;;;;;;;;;5002991;28;20135;-61
2022/04/26 07:20:17;;;;;;;9.05;3.58;;;;;;;;;;5003152;28;20064;-62
2022/04/26 07:22:42;;;;;;;10.13;3.22;;;;;;;;;;4984622;28;20032;-61
2022/04/26 07:25:10;;;;;;;7.75;3.35;;;;;;;;;;5002883;28;20762;-64
2022/04/26 07:27:35;;;;;;;6.28;3.50;;;;;;;;;;5003437;28;20056;-62
2022/04/26 07:30:03;;;;;;;8.65;3.40;;;;;;;;;;5002134;28;20294;-61
2022/04/26 07:35:12;;;;;;;7.43;3.35;;;;;;;;;;5001370;28;20784;-61
2022/04/26 07:37:38;;;;;;;8.75;3.33;;;;;;;;;;5012703;28;20092;-61
2022/04/26 07:40:07;;;;;;;8.70;3.30;;;;;;;;;;5000347;28;20025;-61
2022/04/26 07:42:32;;;;;;;9.20;3.28;;;;;;;;;;5017577;28;20053;-61
2022/04/26 07:44:58;;;;;;;7.32;3.28;;;;;;;;;;5002453;28;20702;-61
2022/04/26 07:47:26;;;;;;;9.60;3.03;;;;;;;;;;5002834;28;20083;-61
2022/04/26 07:49:54;;;;;;;7.60;3.22;;;;;;;;;;5003092;28;20557;-63
2022/04/26 07:52:20;;;;;;;7.25;3.08;;;;;;;;;;5002658;28;20037;-62
2022/04/26 07:54:46;;;;;;;9.85;3.10;;;;;;;;;;5000170;28;20056;-63
2022/04/26 07:57:11;;;;;;;7.93;3.45;;;;;;;;;;5002283;28;20426;-63
2022/04/26 07:59:36;;;;;;;11.02;3.97;;;;;;;;;;5002895;28;21815;-63
2022/04/26 08:02:02;;;;;;;8.10;3.55;;;;;;;;;;5012137;28;20033;-61
2022/04/26 08:04:27;;;;;;;12.98;3.88;;;;;;;;;;5000314;28;20034;-63
2022/04/26 08:06:53;;;;;;;6.35;2.92;;;;;;;;;;5002304;28;20411;-61
2022/04/26 08:09:18;;;;;;;6.15;2.78;;;;;;;;;;5002921;28;20056;-62
2022/04/26 08:11:43;;;;;;;8.45;3.67;;;;;;;;;;5002648;28;20564;-62
2022/04/26 08:14:09;;;;;;;7.78;3.80;;;;;;;;;;5002606;28;20744;-62
2022/04/26 08:16:34;;;;;;;6.20;3.25;;;;;;;;;;5002790;28;20373;-62
2022/04/26 08:19:02;;;;;;;8.23;3.25;;;;;;;;;;5002653;28;20572;-60
2022/04/26 08:21:27;;;;;;;13.30;3.65;;;;;;;;;;5002684;28;20025;-61
2022/04/26 08:29:24;;;;;;;6.68;3.10;;;;;;;;;;5002606;28;20248;-62
2022/04/26 08:31:49;;;;;;;6.45;3.20;;;;;;;;;;5002823;28;20166;-62
2022/04/26 08:34:14;;;;;;;11.23;3.50;;;;;;;;;;4999732;28;20029;-63
2022/04/26 08:36:40;;;;;;;20.52;4.43;;;;;;;;;;5004260;28;20033;-60
2022/04/26 08:39:05;;;;;;;9.65;3.47;;;;;;;;;;5001858;28;20412;-61
2022/04/26 08:41:30;;;;;;;9.88;3.25;;;;;;;;;;5002340;28;20333;-61
2022/04/26 08:43:59;;;;;;;11.35;3.15;;;;;;;;;;5002767;28;20861;-62
2022/04/26 08:50:59;;;;;;;11.75;3.55;;;;;;;;;;5000358;28;20079;-61
2022/04/26 08:51:58;;;;;;;11.18;3.92;;;;;;;;;;5004038;28;20143;-62
2022/04/26 08:54:24;;;;;;;11.55;3.40;;;;;;;;;;5005533;28;20040;-61
2022/04/26 08:56:49;;;;;;;8.88;3.35;;;;;;;;;;5005181;28;20033;-61
2022/04/26 08:59:17;;;;;;;10.88;3.55;;;;;;;;;;5006064;28;20025;-61
2022/04/26 09:01:44;;;;;;;10.88;3.72;;;;;;;;;;5003677;28;20029;-61
2022/04/26 09:04:14;;;;;;;13.85;3.60;;;;;;;;;;5006896;28;20126;-61
2022/04/26 09:06:43;;;;;;;11.27;3.00;;;;;;;;;;5003871;28;20047;-62
2022/04/26 09:09:13;;;;;;;12.60;3.47;;;;;;;;;;5005918;28;20495;-61
2022/04/26 09:11:38;;;;;;;9.52;3.20;;;;;;;;;;5005403;28;20044;-61
2022/04/26 09:14:05;;;;;;;14.20;4.00;;;;;;;;;;5005302;28;20037;-61
2022/04/26 09:16:31;;;;;;;12.15;3.45;;;;;;;;;;5005515;28;20832;-61
2022/04/26 09:18:57;;;;;;;13.68;3.47;;;;;;;;;;5005385;28;20031;-61
2022/04/26 09:21:26;;;;;;;10.20;3.03;;;;;;;;;;5005137;28;20209;-65
2022/04/26 09:23:52;;;;;;;9.50;3.47;;;;;;;;;;5005284;28;20494;-62
2022/04/26 09:26:18;;;;;;;6.32;2.92;;;;;;;;;;5003207;28;20037;-62
2022/04/26 09:28:47;;;;;;;11.88;3.17;;;;;;;;;;5004931;28;20303;-62
2022/04/26 09:31:16;;;;;;;15.43;3.60;;;;;;;;;;5005651;28;20365;-61
2022/04/26 09:33:47;;;;;;;16.33;3.40;;;;;;;;;;5004427;28;20577;-61
2022/04/26 09:36:12;;;;;;;12.82;3.65;;;;;;;;;;5004318;28;20456;-60
2022/04/26 09:38:38;;;;;;;14.88;3.50;;;;;;;;;;5003192;28;20025;-61
2022/04/26 09:41:04;;;;;;;10.88;3.60;;;;;;;;;;5004695;28;20047;-62
2022/04/26 09:43:31;;;;;;;13.63;3.58;;;;;;;;;;5005197;28;20411;-62
2022/04/26 09:45:57;;;;;;;14.35;3.25;;;;;;;;;;5005371;28;20033;-61
2022/04/26 09:48:29;;;;;;;12.93;3.00;;;;;;;;;;5019105;28;20036;-62
2022/04/26 09:50:57;;;;;;;17.80;3.15;;;;;;;;;;5004117;28;20282;-62
2022/04/26 09:53:22;;;;;;;11.93;3.47;;;;;;;;;;5004614;28;20519;-61
2022/04/26 09:55:53;;;;;;;21.40;3.63;;;;;;;;;;5004392;28;20048;-62
2022/04/26 09:58:19;;;;;;;21.00;3.50;;;;;;;;;;5004247;28;20035;-62
2022/04/26 10:00:47;;;;;;;19.35;3.67;;;;;;;;;;5004027;28;20034;-61
2022/04/26 10:03:16;;;;;;;25.83;4.13;;;;;;;;;;5004466;28;20025;-61
2022/04/26 10:05:41;;;;;;;14.57;3.00;;;;;;;;;;5004336;28;20155;-62
2022/04/26 10:08:07;;;;;;;11.13;2.80;;;;;;;;;;5004386;28;20128;-62
2022/04/26 10:10:33;;;;;;;9.60;3.22;;;;;;;;;;5002643;28;20028;-61
2022/04/26 10:15:43;;;;;;;9.35;2.83;;;;;;;;;;5003766;28;20464;-61
2022/04/26 10:18:25;;;;;;;15.20;2.97;;;;;;;;;;5003899;28;20075;-62
2022/04/26 10:20:53;;;;;;;14.63;3.33;;;;;;;;;;5003721;28;20023;-61
2022/04/26 10:23:18;;;;;;;15.57;3.22;;;;;;;;;;5003513;28;20572;-61
2022/04/26 10:26:03;;;;;;;12.50;3.20;;;;;;;;;;5018609;28;20036;-61
2022/04/26 10:28:29;;;;;;;16.65;3.38;;;;;;;;;;5018329;28;20063;-61
2022/04/26 10:30:55;;;;;;;15.00;3.40;;;;;;;;;;5003592;28;20528;-61
2022/04/26 10:33:33;;;;;;;18.48;3.20;;;;;;;;;;5003586;28;20308;-62
2022/04/26 10:36:18;;;;;;;14.07;3.45;;;;;;;;;;5004838;28;20466;-60
2022/04/26 10:39:03;;;;;;;13.75;3.72;;;;;;;;;;5003591;28;20029;-60
2022/04/26 10:41:33;;;;;;;17.42;3.35;;;;;;;;;;5004068;28;20501;-61
2022/04/26 10:44:14;;;;;;;20.38;3.55;;;;;;;;;;5003344;28;20114;-62
2022/04/26 10:46:40;;;;;;;15.60;2.95;;;;;;;;;;5004077;28;20263;-67
2022/04/26 10:49:24;;;;;;;13.15;3.05;;;;;;;;;;5003662;28;20070;-67
2022/04/26 10:51:51;;;;;;;19.40;4.03;;;;;;;;;;5003868;28;20068;-68
2022/04/26 10:54:36;;;;;;;11.35;3.10;;;;;;;;;;5003524;28;20068;-67
2022/04/26 10:57:04;;;;;;;16.25;3.58;;;;;;;;;;5003654;28;20227;-67
2022/04/26 10:59:29;;;;;;;15.55;3.00;;;;;;;;;;5003485;28;20029;-67
2022/04/26 11:01:55;;;;;;;13.23;2.97;;;;;;;;;;5018233;28;20109;-68
2022/04/26 11:04:25;;;;;;;16.25;3.85;;;;;;;;;;5003415;28;20025;-68
2022/04/26 11:06:50;;;;;;;12.93;2.90;;;;;;;;;;5003204;28;20539;-68
2022/04/26 11:09:16;;;;;;;14.00;2.85;;;;;;;;;;5003072;28;20204;-68
2022/04/26 11:11:48;;;;;;;10.00;2.83;;;;;;;;;;5003579;28;20497;-66
2022/04/26 11:14:17;;;;;;;12.50;2.58;;;;;;;;;;5002605;28;20392;-66
2022/04/26 11:16:55;;;;;;;18.77;3.08;;;;;;;;;;5017679;28;20594;-68
2022/04/26 11:19:27;;;;;;;12.40;3.03;;;;;;;;;;5006674;28;20394;-67
2022/04/26 11:22:02;;;;;;;11.50;2.70;;;;;;;;;;5001319;28;20352;-67
2022/04/26 11:29:55;;;;;;;12.50;3.13;;;;;;;;;;5003195;28;21742;-66
2022/04/26 11:32:31;;;;;;;11.48;3.40;;;;;;;;;;5002869;28;20059;-68
2022/04/26 11:34:56;;;;;;;9.07;3.00;;;;;;;;;;5002627;28;20369;-66
2022/04/26 11:37:22;;;;;;;12.00;3.00;;;;;;;;;;5001760;28;20051;-66
2022/04/26 11:39:47;;;;;;;8.32;2.70;;;;;;;;;;5002572;28;20033;-66
2022/04/26 11:42:13;;;;;;;10.43;3.20;;;;;;;;;;5003053;28;20025;-65
2022/04/26 11:44:57;;;;;;;12.70;3.10;;;;;;;;;;5002450;28;20400;-66
2022/04/26 11:47:36;;;;;;;13.10;3.28;;;;;;;;;;5002557;28;20037;-65
2022/04/26 11:50:08;;;;;;;11.05;2.92;;;;;;;;;;5001654;28;20329;-66
2022/04/26 11:52:33;;;;;;;12.73;2.92;;;;;;;;;;5000968;28;20272;-65
2022/04/26 11:55:04;;;;;;;12.90;2.83;;;;;;;;;;5000597;28;20033;-66
2022/04/26 11:57:30;;;;;;;17.58;3.05;;;;;;;;;;5000977;28;20033;-67
2022/04/26 11:59:57;;;;;;;11.85;2.90;;;;;;;;;;5002668;28;20026;-65
2022/04/26 12:02:22;;;;;;;15.43;2.88;;;;;;;;;;5001998;28;20039;-65
2022/04/26 12:04:48;;;;;;;12.40;3.00;;;;;;;;;;5002248;28;20972;-66
2022/04/26 12:07:16;;;;;;;12.88;2.90;;;;;;;;;;5002612;28;20182;-66
2022/04/26 12:09:42;;;;;;;10.40;2.55;;;;;;;;;;5002704;28;20549;-66
2022/04/26 12:12:10;;;;;;;7.65;2.40;;;;;;;;;;5002453;28;20256;-66
2022/04/26 12:14:38;;;;;;;12.32;3.00;;;;;;;;;;5002845;28;20060;-69
2022/04/26 12:17:03;;;;;;;11.00;2.80;;;;;;;;;;5002203;28;20021;-67
2022/04/26 12:19:41;;;;;;;10.88;2.63;;;;;;;;;;5001905;28;20518;-68
2022/04/26 12:22:06;;;;;;;12.40;2.75;;;;;;;;;;4993213;28;20559;-67
2022/04/26 12:24:33;;;;;;;7.82;2.38;;;;;;;;;;5000874;28;20037;-68
2022/04/26 12:26:59;;;;;;;6.78;2.45;;;;;;;;;;5005028;28;20269;-67
2022/04/26 12:29:25;;;;;;;10.68;2.70;;;;;;;;;;5020644;28;20033;-68
2022/04/26 12:31:53;;;;;;;7.20;2.40;;;;;;;;;;5005610;28;20227;-68
2022/04/26 12:34:22;;;;;;;6.60;2.53;;;;;;;;;;5006314;28;20048;-67
2022/04/26 12:36:57;;;;;;;5.72;2.40;;;;;;;;;;5006358;28;20396;-67
2022/04/26 12:39:25;;;;;;;11.52;2.45;;;;;;;;;;5006055;28;20536;-67
2022/04/26 12:41:52;;;;;;;5.43;2.50;;;;;;;;;;5006573;28;20024;-68
2022/04/26 12:44:18;;;;;;;7.15;2.60;;;;;;;;;;5005771;28;20035;-68
2022/04/26 12:46:45;;;;;;;7.72;2.35;;;;;;;;;;5004623;28;21262;-68
2022/04/26 12:51:55;;;;;;;5.65;2.67;;;;;;;;;;5006360;28;20041;-69
2022/04/26 12:54:23;;;;;;;5.40;2.42;;;;;;;;;;5004133;28;20053;-68
2022/04/26 12:56:59;;;;;;;8.63;2.60;;;;;;;;;;4987875;28;20634;-69
2022/04/26 12:59:32;;;;;;;7.32;2.70;;;;;;;;;;5005824;28;20029;-67
2022/04/26 13:01:58;;;;;;;7.07;2.47;;;;;;;;;;5005697;28;20029;-66
2022/04/26 13:04:23;;;;;;;8.05;2.63;;;;;;;;;;5005527;28;20025;-68
2022/04/26 13:06:48;;;;;;;5.47;2.50;;;;;;;;;;5005792;28;20179;-66
2022/04/26 13:09:17;;;;;;;8.00;2.85;;;;;;;;;;5004185;28;20422;-66
2022/04/26 13:11:43;;;;;;;9.07;2.42;;;;;;;;;;5019979;28;20201;-66
2022/04/26 13:14:09;;;;;;;6.68;2.47;;;;;;;;;;5005729;28;20446;-65
2022/04/26 13:16:34;;;;;;;4.93;2.58;;;;;;;;;;5020019;28;20186;-65
2022/04/26 13:19:00;;;;;;;6.05;2.80;;;;;;;;;;5015086;28;20872;-66
2022/04/26 13:21:26;;;;;;;5.22;2.60;;;;;;;;;;5019817;28;20060;-66
2022/04/26 13:23:52;;;;;;;5.30;2.60;;;;;;;;;;5008837;28;20040;-66
2022/04/26 13:26:17;;;;;;;9.18;2.75;;;;;;;;;;5003571;28;20028;-66
2022/04/26 13:28:43;;;;;;;4.88;2.20;;;;;;;;;;5005283;28;20056;-66
2022/04/26 13:31:08;;;;;;;5.43;2.50;;;;;;;;;;5005304;28;20151;-66
2022/04/26 13:33:34;;;;;;;4.53;2.40;;;;;;;;;;5004802;28;20128;-65
2022/04/26 13:36:01;;;;;;;9.52;2.67;;;;;;;;;;5004816;28;20041;-66
2022/04/26 13:38:26;;;;;;;7.90;2.95;;;;;;;;;;5018767;28;20285;-67
2022/04/26 13:40:53;;;;;;;6.63;2.47;;;;;;;;;;5005537;28;20493;-67
2022/04/26 13:43:21;;;;;;;5.95;2.42;;;;;;;;;;5019877;28;20036;-66
2022/04/26 13:45:46;;;;;;;7.45;2.85;;;;;;;;;;5004938;28;20060;-66
2022/04/26 13:48:11;;;;;;;7.15;2.50;;;;;;;;;;5004792;28;20029;-66
2022/04/26 13:50:37;;;;;;;6.68;2.85;;;;;;;;;;5004734;28;22560;-67
2022/04/26 13:53:02;;;;;;;5.35;2.50;;;;;;;;;;5005015;28;20044;-67
2022/04/26 13:55:28;;;;;;;5.00;2.20;;;;;;;;;;5004813;28;20650;-66
2022/04/26 13:57:54;;;;;;;8.88;2.97;;;;;;;;;;5003059;28;20068;-66
2022/04/26 14:00:22;;;;;;;5.18;2.33;;;;;;;;;;5003461;28;20039;-65
2022/04/26 14:02:48;;;;;;;6.13;2.38;;;;;;;;;;5003380;28;20028;-66
2022/04/26 14:05:18;;;;;;;4.03;2.17;;;;;;;;;;5004212;28;20033;-67
2022/04/26 14:07:46;;;;;;;7.70;2.80;;;;;;;;;;5004062;28;20362;-66
2022/04/26 14:10:17;;;;;;;7.75;2.50;;;;;;;;;;5004531;28;20029;-67
2022/04/26 14:12:42;;;;;;;8.80;2.38;;;;;;;;;;5002372;28;20028;-67
2022/04/26 14:23:20;;;;;;;5.50;2.33;;;;;;;;;;5003922;28;20344;-67
2022/04/26 14:25:46;;;;;;;6.22;2.25;;;;;;;;;;5004739;28;20268;-65
2022/04/26 14:28:12;;;;;;;5.72;2.53;;;;;;;;;;5003720;28;20337;-66
2022/04/26 14:30:37;;;;;;;4.07;2.70;;;;;;;;;;5004094;28;20751;-67
2022/04/26 14:33:05;;;;;;;8.43;2.30;;;;;;;;;;5012336;28;20559;-66
2022/04/26 14:35:32;;;;;;;7.80;2.50;;;;;;;;;;5018366;28;20586;-67
2022/04/26 14:37:58;;;;;;;7.45;2.38;;;;;;;;;;5004325;28;20033;-67
2022/04/26 14:40:23;;;;;;;5.25;2.40;;;;;;;;;;5004001;28;20060;-68
2022/04/26 14:42:49;;;;;;;7.30;2.50;;;;;;;;;;5003774;28;20017;-67
2022/04/26 14:45:14;;;;;;;8.40;2.40;;;;;;;;;;5001276;28;20440;-67
2022/04/26 14:47:42;;;;;;;6.40;2.45;;;;;;;;;;5003679;28;20123;-66
2022/04/26 14:50:09;;;;;;;6.30;2.55;;;;;;;;;;5002946;28;20558;-66
2022/04/26 14:52:37;;;;;;;7.22;2.65;;;;;;;;;;5001675;28;20045;-67
2022/04/26 14:55:08;;;;;;;5.53;2.60;;;;;;;;;;5003114;28;20025;-67
2022/04/26 14:57:33;;;;;;;11.32;3.00;;;;;;;;;;5001696;28;20036;-67
2022/04/26 14:59:59;;;;;;;9.23;2.80;;;;;;;;;;5002915;28;20037;-67
2022/04/26 15:02:24;;;;;;;6.15;2.60;;;;;;;;;;5002412;28;20029;-66
2022/04/26 15:04:52;;;;;;;10.07;2.60;;;;;;;;;;5002867;28;20036;-67
2022/04/26 15:07:17;;;;;;;6.88;2.70;;;;;;;;;;5003716;28;20106;-66
2022/04/26 15:09:42;;;;;;;7.53;2.70;;;;;;;;;;5018294;28;20044;-66
2022/04/26 15:17:37;;;;;;;7.88;2.97;;;;;;;;;;5003073;28;20022;-67
2022/04/26 15:20:03;;;;;;;11.15;3.20;;;;;;;;;;5002743;28;20147;-66
2022/04/26 15:22:29;;;;;;;10.30;2.75;;;;;;;;;;5002672;28;20021;-67
2022/04/26 15:24:54;;;;;;;11.35;2.75;;;;;;;;;;5001656;28;20402;-67
2022/04/26 15:27:20;;;;;;;10.23;2.58;;;;;;;;;;5002697;28;21995;-66
2022/04/26 15:29:46;;;;;;;10.45;2.90;;;;;;;;;;5003584;28;20423;-67
2022/04/26 15:32:11;;;;;;;11.55;2.65;;;;;;;;;;5003440;28;20033;-65
2022/04/26 15:34:37;;;;;;;7.90;2.30;;;;;;;;;;5002235;28;20156;-66
2022/04/26 15:37:03;;;;;;;11.48;3.05;;;;;;;;;;5002763;28;20111;-65
2022/04/26 15:39:29;;;;;;;9.95;2.85;;;;;;;;;;5000731;28;20483;-67
2022/04/26 15:41:57;;;;;;;6.00;2.55;;;;;;;;;;5001536;28;20060;-66
2022/04/26 15:44:23;;;;;;;7.25;2.70;;;;;;;;;;5002388;28;20481;-64
2022/04/26 15:46:52;;;;;;;7.30;2.72;;;;;;;;;;5003633;28;21827;-65
2022/04/26 15:49:20;;;;;;;7.97;2.85;;;;;;;;;;5002335;28;20040;-66
2022/04/26 15:51:48;;;;;;;6.63;2.80;;;;;;;;;;5003161;28;20676;-65
2022/04/26 15:54:18;;;;;;;10.50;2.85;;;;;;;;;;5002517;28;20101;-65
2022/04/26 15:56:44;;;;;;;8.38;2.42;;;;;;;;;;5002580;28;20512;-66
2022/04/26 15:59:12;;;;;;;9.38;2.75;;;;;;;;;;5017675;28;20025;-66
2022/04/26 16:01:39;;;;;;;8.23;2.33;;;;;;;;;;5005243;28;20753;-68
2022/04/26 16:04:05;;;;;;;10.85;2.92;;;;;;;;;;5004677;28;20128;-66
2022/04/26 16:06:30;;;;;;;8.85;2.45;;;;;;;;;;5006814;28;20017;-66
2022/04/26 16:20:28;;;;;;;4.20;2.17;;;;;;;;;;5010255;28;20039;-66
2022/04/26 16:22:36;;;;;;;5.95;1.95;;;;;;;;;;5006006;28;20053;-66
2022/04/26 16:25:04;;;;;;;6.57;2.03;;;;;;;;;;5004975;28;20934;-66
2022/04/26 16:27:30;;;;;;;7.95;1.92;;;;;;;;;;5006540;28;20048;-67
2022/04/26 16:29:55;;;;;;;11.00;2.33;;;;;;;;;;5020841;28;20029;-66
2022/04/26 16:32:20;;;;;;;8.68;1.90;;;;;;;;;;5005929;28;20289;-62
2022/04/26 16:34:46;;;;;;;11.35;2.50;;;;;;;;;;5003375;28;20100;-62
2022/04/26 16:37:12;;;;;;;9.98;2.45;;;;;;;;;;5005984;28;20286;-62
2022/04/26 16:39:37;;;;;;;8.00;2.40;;;;;;;;;;5005961;28;20047;-61
2022/04/26 16:42:02;;;;;;;6.25;2.17;;;;;;;;;;5005934;28;20432;-61
2022/04/26 16:44:27;;;;;;;9.40;2.60;;;;;;;;;;5005741;28;20164;-62
2022/04/26 16:46:55;;;;;;;8.30;2.63;;;;;;;;;;4997413;28;20033;-61
2022/04/26 16:49:20;;;;;;;11.00;2.60;;;;;;;;;;5005147;28;20041;-62
2022/04/26 16:51:48;;;;;;;9.65;2.00;;;;;;;;;;5003880;28;20033;-62
2022/04/26 16:54:17;;;;;;;11.55;2.60;;;;;;;;;;5004548;28;20330;-63
2022/04/26 16:56:43;;;;;;;10.20;3.03;;;;;;;;;;4998707;28;20037;-62
2022/04/26 16:59:09;;;;;;;6.65;2.80;;;;;;;;;;5005976;28;20033;-61
2022/04/26 17:01:34;;;;;;;7.70;2.50;;;;;;;;;;5004962;28;20098;-63
2022/04/26 17:04:03;;;;;;;5.63;2.30;;;;;;;;;;5005765;28;20041;-62
2022/04/26 17:06:29;;;;;;;6.43;2.40;;;;;;;;;;5014060;28;20122;-62
2022/04/26 17:08:55;;;;;;;8.52;2.80;;;;;;;;;;5020643;28;20481;-61
2022/04/26 17:11:42;;;;;;;6.68;2.50;;;;;;;;;;5004992;28;20097;-61
2022/04/26 17:14:07;;;;;;;7.97;2.40;;;;;;;;;;5004671;28;20374;-62
2022/04/26 17:16:33;;;;;;;7.63;2.50;;;;;;;;;;5004542;28;20392;-63
2022/04/26 17:18:58;;;;;;;7.13;2.28;;;;;;;;;;5005670;28;20453;-61
2022/04/26 17:21:24;;;;;;;8.50;2.85;;;;;;;;;;5019698;28;20126;-62
2022/04/26 17:23:50;;;;;;;11.55;2.65;;;;;;;;;;5004923;28;20209;-64
2022/04/26 17:26:17;;;;;;;7.00;2.22;;;;;;;;;;5005186;28;20029;-62
2022/04/26 17:28:43;;;;;;;5.30;2.22;;;;;;;;;;5004976;28;20571;-63
2022/04/26 17:31:08;;;;;;;8.95;2.67;;;;;;;;;;5005444;28;20025;-63
2022/04/26 17:33:34;;;;;;;6.43;2.60;;;;;;;;;;5004972;28;20410;-62
2022/04/26 17:35:59;;;;;;;8.90;3.17;;;;;;;;;;5005127;28;20428;-62
2022/04/26 17:38:24;;;;;;;8.52;2.90;;;;;;;;;;5002522;28;20115;-63
2022/04/26 17:40:50;;;;;;;8.10;2.80;;;;;;;;;;5008559;28;21923;-63
2022/04/26 17:43:15;;;;;;;9.25;2.90;;;;;;;;;;5004672;28;20399;-62
2022/04/26 17:45:41;;;;;;;9.02;2.92;;;;;;;;;;5003649;28;20508;-63
2022/04/26 17:48:06;;;;;;;7.97;3.00;;;;;;;;;;5004840;28;20487;-62
2022/04/26 17:50:34;;;;;;;6.43;2.53;;;;;;;;;;5004194;28;20045;-63
2022/04/26 17:58:35;;;;;;;8.50;2.78;;;;;;;;;;5004447;28;20344;-63
2022/04/26 18:01:03;;;;;;;6.82;3.30;;;;;;;;;;5002461;28;20033;-62
2022/04/26 18:03:28;;;;;;;8.98;2.80;;;;;;;;;;5004858;28;20356;-63
2022/04/26 18:05:54;;;;;;;7.45;2.83;;;;;;;;;;5018235;28;20037;-62
2022/04/26 18:08:20;;;;;;;6.85;2.70;;;;;;;;;;5004264;28;20048;-62
2022/04/26 18:10:45;;;;;;;7.78;2.40;;;;;;;;;;5004073;28;20033;-61
2022/04/26 18:13:14;;;;;;;7.43;2.10;;;;;;;;;;5019084;28;20041;-62
2022/04/26 18:15:39;;;;;;;4.07;2.17;;;;;;;;;;4995802;28;20033;-63
2022/04/26 18:18:07;;;;;;;4.93;2.10;;;;;;;;;;5004743;28;20028;-64
2022/04/26 18:20:33;;;;;;;7.25;2.30;;;;;;;;;;5004269;28;20039;-65
2022/04/26 18:22:59;;;;;;;5.75;2.45;;;;;;;;;;5004134;28;20037;-65
2022/04/26 18:28:09;;;;;;;6.78;2.72;;;;;;;;;;5002506;28;21951;-64
2022/04/26 18:30:35;;;;;;;11.63;2.38;;;;;;;;;;5004232;28;20033;-65
2022/04/26 18:33:05;;;;;;;7.15;2.63;;;;;;;;;;5003326;28;20134;-66
2022/04/26 18:35:32;;;;;;;7.60;2.08;;;;;;;;;;5003629;28;20093;-64
2022/04/26 18:37:58;;;;;;;7.53;2.75;;;;;;;;;;5002909;28;20044;-64
2022/04/26 18:40:24;;;;;;;8.80;3.03;;;;;;;;;;5004357;28;20302;-65
2022/04/26 18:42:52;;;;;;;7.47;2.80;;;;;;;;;;5005912;28;20177;-64
2022/04/26 18:45:18;;;;;;;9.23;3.00;;;;;;;;;;5004225;28;20127;-64
2022/04/26 18:47:44;;;;;;;7.70;2.65;;;;;;;;;;5012979;28;20504;-65
2022/04/26 18:50:11;;;;;;;8.23;2.55;;;;;;;;;;5002727;28;20292;-65
2022/04/26 18:52:36;;;;;;;5.93;2.63;;;;;;;;;;5004262;28;20022;-64
2022/04/26 18:55:01;;;;;;;7.93;2.90;;;;;;;;;;5003397;28;20099;-64
2022/04/26 18:57:27;;;;;;;9.70;2.70;;;;;;;;;;5003833;28;20022;-65
2022/04/26 18:59:52;;;;;;;5.57;2.90;;;;;;;;;;5001144;28;20289;-64
2022/04/26 19:02:19;;;;;;;5.88;2.85;;;;;;;;;;5003874;28;20270;-64
2022/04/26 19:04:44;;;;;;;6.00;2.53;;;;;;;;;;5003081;28;20033;-64
2022/04/26 19:07:10;;;;;;;6.50;2.35;;;;;;;;;;5003713;28;20399;-65